Time;durP1;ratioP1;P1;durP2;ratioP2;P2;SDS_P1;SDS_P2;PMS_P1;PMS_P2;Temp;Humidity;BMP_temperature;BMP_pressure;BME280_temperature;BME280_humidity;BME280_pressure;Samples;Min_cycle;Max_cycle;Signal;HPM_P1;HPM_P2
2023/06/13 00:01:08;;;;;;;;;;;;;;;23.43;62.18;100602.28;5013931;28;20083;-82
2023/06/13 00:03:36;;;;;;;;;;;;;;;23.49;61.55;100604.06;5025122;28;19931;-84
2023/06/13 00:06:04;;;;;;;;;;;;;;;23.43;62.05;100613.09;5017622;28;20300;-84
2023/06/13 00:08:33;;;;;;;;;;;;;;;23.38;61.98;100621.06;5009942;28;19963;-84
2023/06/13 00:11:00;;;;;;;;;;;;;;;23.44;62.01;100620.16;5017517;28;19939;-84
2023/06/13 00:13:30;;;;;;;;;;;;;;;23.46;61.87;100623.50;5035707;28;19932;-83
2023/06/13 00:16:00;;;;;;;;;;;;;;;23.44;61.77;100625.59;5025580;28;19925;-83
2023/06/13 00:18:30;;;;;;;;;;;;;;;23.49;61.61;100631.16;5008832;28;19924;-83
2023/06/13 00:21:00;;;;;;;;;;;;;;;23.34;62.04;100634.22;5003736;28;19928;-83
2023/06/13 00:23:35;;;;;;;;;;;;;;;23.27;61.85;100635.31;4995455;28;19925;-84
2023/06/13 00:26:09;;;;;;;;;;;;;;;23.01;61.84;100593.81;5035134;28;20204;-83
2023/06/13 00:28:37;;;;;;;;;;;;;;;23.18;62.45;100638.28;5034668;28;20452;-84
2023/06/13 00:31:04;;;;;;;;;;;;;;;23.14;62.42;100634.34;5020093;28;20836;-83
2023/06/13 00:33:31;;;;;;;;;;;;;;;23.10;62.70;100633.13;5034962;28;19932;-83
2023/06/13 00:35:58;;;;;;;;;;;;;;;;;;5004512;28;20146;-84
2023/06/13 00:38:28;;;;;;;;;;;;;;;22.95;63.28;100641.50;4983054;28;19925;-83
2023/06/13 00:40:57;;;;;;;;;;;;;;;22.94;62.75;100636.34;4994070;28;20128;-84
2023/06/13 00:43:26;;;;;;;;;;;;;;;22.86;63.64;100645.50;4996531;28;20106;-83
2023/06/13 00:45:56;;;;;;;;;;;;;;;22.81;63.56;100646.16;5013606;28;20127;-84
2023/06/13 00:48:23;;;;;;;;;;;;;;;22.76;63.86;100647.84;5036130;28;20066;-85
2023/06/13 00:50:51;;;;;;;;;;;;;;;22.74;63.51;100658.88;5013216;28;20029;-85
2023/06/13 00:53:21;;;;;;;;;;;;;;;22.67;63.91;100665.38;5034225;28;19925;-85
2023/06/13 00:55:50;;;;;;;;;;;;;;;22.67;64.10;100658.13;5026713;28;19932;-84
2023/06/13 00:58:20;;;;;;;;;;;;;;;22.29;64.51;100621.00;5026523;28;20276;-84
2023/06/13 01:00:49;;;;;;;;;;;;;;;22.59;64.49;100661.03;5032310;28;20484;-83
2023/06/13 01:03:23;;;;;;;;;;;;;;;22.08;64.23;100583.38;5025520;28;20013;-83
2023/06/13 01:05:52;;;;;;;;;;;;;;;22.28;64.21;100608.53;5039308;28;19955;-84
2023/06/13 01:08:22;;;;;;;;;;;;;;;22.56;64.12;100656.06;5033465;28;20370;-84
2023/06/13 01:11:15;;;;;;;;;;;;;;;22.52;64.27;100652.94;5033974;28;20258;-85
2023/06/13 01:13:51;;;;;;;;;;;;;;;22.50;64.24;100654.22;5027639;28;19924;-84
2023/06/13 01:16:35;;;;;;;;;;;;;;;22.48;64.37;100656.31;5031854;28;19947;-83
2023/06/13 01:19:11;;;;;;;;;;;;;;;22.48;64.23;100662.56;5037796;28;20318;-84
2023/06/13 01:21:39;;;;;;;;;;;;;;;22.46;64.38;100661.13;5039817;28;20711;-83
2023/06/13 01:24:10;;;;;;;;;;;;;;;22.37;64.96;100657.78;5031173;28;20148;-84
2023/06/13 01:26:46;;;;;;;;;;;;;;;22.33;65.08;100661.97;5026922;28;19928;-84
2023/06/13 01:29:14;;;;;;;;;;;;;;;22.52;63.90;100665.66;5015681;28;20522;-84
2023/06/13 01:31:41;;;;;;;;;;;;;;;22.63;63.67;100665.00;5034452;28;20024;-83
2023/06/13 01:34:09;;;;;;;;;;;;;;;22.37;64.47;100661.31;5036621;28;20373;-83
2023/06/13 01:36:36;;;;;;;;;;;;;;;22.34;64.63;100659.06;5029015;28;20208;-84
2023/06/13 01:39:02;;;;;;;;;;;;;;;22.31;64.76;100664.06;5021247;28;19929;-84
2023/06/13 01:41:29;;;;;;;;;;;;;;;22.36;64.36;100666.97;5019180;28;19924;-84
2023/06/13 01:43:56;;;;;;;;;;;;;;;22.29;64.63;100668.84;5005934;28;19931;-84
2023/06/13 01:46:26;;;;;;;;;;;;;;;22.21;64.94;100664.50;4985803;28;20308;-82
2023/06/13 01:49:13;;;;;;;;;;;;;;;22.17;65.07;100668.63;4997402;28;19928;-84
2023/06/13 01:51:59;;;;;;;;;;;;;;;21.75;64.79;100595.13;5011592;28;20310;-83
2023/06/13 01:54:32;;;;;;;;;;;;;;;22.11;65.17;100664.06;5035632;28;20294;-83
2023/06/13 01:57:02;;;;;;;;;;;;;;;22.11;65.22;100658.66;5007985;28;19928;-83
2023/06/13 01:59:29;;;;;;;;;;;;;;;22.06;65.37;100661.16;5023295;28;19957;-84
2023/06/13 02:01:56;;;;;;;;;;;;;;;21.94;65.88;100661.81;5009837;28;19952;-83
2023/06/13 02:04:23;;;;;;;;;;;;;;;22.01;65.56;100655.56;5024128;28;19928;-84
2023/06/13 02:06:49;;;;;;;;;;;;;;;21.97;65.83;100650.59;5025288;28;19924;-84
2023/06/13 02:09:18;;;;;;;;;;;;;;;22.00;65.71;100648.50;5004170;28;23603;-84
2023/06/13 02:11:45;;;;;;;;;;;;;;;21.96;65.81;100645.38;5017677;28;19928;-83
2023/06/13 02:14:11;;;;;;;;;;;;;;;21.86;66.09;100640.41;5028609;28;20028;-84
2023/06/13 02:16:39;;;;;;;;;;;;;;;21.81;66.03;100632.09;5016120;28;19931;-85
2023/06/13 02:19:10;;;;;;;;;;;;;;;21.72;66.17;100614.44;4995786;28;20393;-83
2023/06/13 02:21:46;;;;;;;;;;;;;;;21.54;66.96;100637.50;4998435;28;20228;-84
2023/06/13 02:24:14;;;;;;;;;;;;;;;21.49;67.54;100645.41;4980924;28;20807;-84
2023/06/13 02:26:41;;;;;;;;;;;;;;;21.52;67.25;100647.69;4988783;28;20568;-84
2023/06/13 02:29:08;;;;;;;;;;;;;;;21.61;67.14;100647.50;5007383;28;20612;-84
2023/06/13 02:31:42;;;;;;;;;;;;;;;21.29;66.52;100604.03;5000137;28;19983;-83
2023/06/13 02:34:17;;;;;;;;;;;;;;;21.50;67.35;100652.47;4987620;28;20321;-84
2023/06/13 02:36:46;;;;;;;;;;;;;;;21.49;67.57;100650.81;4997562;28;19928;-84
2023/06/13 02:39:16;;;;;;;;;;;;;;;21.52;66.98;100654.97;5016765;28;20042;-84
2023/06/13 02:41:47;;;;;;;;;;;;;;;21.48;67.26;100651.84;5008695;28;19924;-84
2023/06/13 02:44:16;;;;;;;;;;;;;;;21.04;68.10;100601.09;5007672;28;20436;-84
2023/06/13 02:46:44;;;;;;;;;;;;;;;21.45;67.29;100652.25;5013804;28;20697;-83
2023/06/13 02:49:10;;;;;;;;;;;;;;;21.39;67.64;100649.53;5011637;28;19924;-83
2023/06/13 02:51:37;;;;;;;;;;;;;;;21.26;68.53;100661.13;5028582;28;20293;-83
2023/06/13 02:54:04;;;;;;;;;;;;;;;21.31;68.26;100662.19;5006025;28;20726;-83
2023/06/13 02:56:30;;;;;;;;;;;;;;;21.27;68.42;100669.03;5005724;28;19928;-83
2023/06/13 02:59:00;;;;;;;;;;;;;;;21.27;68.42;100658.22;4999307;28;20642;-84
2023/06/13 03:01:35;;;;;;;;;;;;;;;21.25;68.73;100654.06;5007583;28;19924;-83
2023/06/13 03:04:05;;;;;;;;;;;;;;;21.33;68.27;100651.16;5001711;28;20111;-83
2023/06/13 03:06:44;;;;;;;;;;;;;;;21.28;68.40;100659.06;4997568;28;20337;-83
2023/06/13 03:09:14;;;;;;;;;;;;;;;21.33;68.23;100653.88;4995012;28;19924;-84
2023/06/13 03:11:47;;;;;;;;;;;;;;;21.35;68.41;100643.69;5010516;28;20079;-84
2023/06/13 03:14:17;;;;;;;;;;;;;;;21.35;68.18;100641.81;5019515;28;20355;-83
2023/06/13 03:16:43;;;;;;;;;;;;;;;21.39;68.25;100644.13;5008084;28;20041;-84
2023/06/13 03:19:10;;;;;;;;;;;;;;;21.36;68.32;100637.28;5014221;28;20143;-84
2023/06/13 03:21:38;;;;;;;;;;;;;;;21.28;68.57;100632.06;5019100;28;19928;-85
2023/06/13 03:24:06;;;;;;;;;;;;;;;21.04;68.81;100596.50;5019383;28;19977;-84
2023/06/13 03:26:37;;;;;;;;;;;;;;;21.35;68.41;100632.91;5023785;28;19924;-83
2023/06/13 03:29:08;;;;;;;;;;;;;;;21.40;68.45;100640.41;5029663;28;19935;-84
2023/06/13 03:31:37;;;;;;;;;;;;;;;20.99;68.80;100590.91;5035146;28;19928;-83
2023/06/13 03:34:05;;;;;;;;;;;;;;;21.24;69.10;100655.09;5031698;28;20796;-83
2023/06/13 03:36:37;;;;;;;;;;;;;;;21.23;69.05;100672.34;5060096;28;20085;-83
2023/06/13 03:39:08;;;;;;;;;;;;;;;21.31;68.78;100664.91;5020232;28;19925;-83
2023/06/13 03:41:34;;;;;;;;;;;;;;;21.21;69.08;100669.84;5033553;28;20056;-83
2023/06/13 03:44:06;;;;;;;;;;;;;;;21.22;69.22;100666.13;5027366;28;20354;-84
2023/06/13 03:46:36;;;;;;;;;;;;;;;21.21;69.37;100664.44;5030207;28;20042;-84
2023/06/13 03:49:05;;;;;;;;;;;;;;;21.23;69.17;100665.06;5034371;28;19928;-83
2023/06/13 03:51:37;;;;;;;;;;;;;;;21.20;69.24;100673.59;5014772;28;19936;-84
2023/06/13 03:54:06;;;;;;;;;;;;;;;21.23;69.25;100661.53;5023175;28;20042;-83
2023/06/13 03:56:36;;;;;;;;;;;;;;;21.24;69.21;100663.19;5015992;28;20125;-83
2023/06/13 03:59:16;;;;;;;;;;;;;;;21.34;68.84;100658.25;4993232;28;19951;-83
2023/06/13 04:02:00;;;;;;;;;;;;;;;21.31;68.80;100661.34;4990588;28;19925;-84
2023/06/13 04:04:36;;;;;;;;;;;;;;;21.32;68.72;100677.34;5013928;28;19928;-84
2023/06/13 04:07:06;;;;;;;;;;;;;;;20.70;69.15;100605.56;5036912;28;19939;-84
2023/06/13 04:09:33;;;;;;;;;;;;;;;21.37;68.43;100689.41;5037911;28;20304;-82
2023/06/13 04:12:02;;;;;;;;;;;;;;;21.19;69.60;100676.47;5031936;28;19939;-84
2023/06/13 04:14:29;;;;;;;;;;;;;;;21.30;68.81;100681.28;5029770;28;19924;-83
2023/06/13 04:16:57;;;;;;;;;;;;;;;21.25;69.22;100689.19;5043287;28;19928;-82
2023/06/13 04:19:26;;;;;;;;;;;;;;;21.21;69.64;100701.41;5034689;28;19950;-82
2023/06/13 04:21:52;;;;;;;;;;;;;;;21.19;69.79;100704.34;5027403;28;19928;-82
2023/06/13 04:24:23;;;;;;;;;;;;;;;21.16;69.95;100714.69;4983125;28;19985;-83
2023/06/13 04:26:57;;;;;;;;;;;;;;;21.13;70.13;100715.94;4970311;28;20555;-82
2023/06/13 04:29:25;;;;;;;;;;;;;;;21.28;69.33;100723.84;5001186;28;19935;-83
2023/06/13 04:31:53;;;;;;;;;;;;;;;21.22;69.70;100730.09;5008923;28;19928;-83
2023/06/13 04:34:21;;;;;;;;;;;;;;;21.24;69.95;100728.00;5027222;28;19961;-82
2023/06/13 04:36:56;;;;;;;;;;;;;;;21.02;69.86;100684.13;5005008;28;19932;-82
2023/06/13 04:39:26;;;;;;;;;;;;;;;21.40;69.83;100738.47;5009477;28;19964;-83
2023/06/13 04:41:55;;;;;;;;;;;;;;;21.47;69.96;100741.19;5015226;28;19924;-83
2023/06/13 04:44:26;;;;;;;;;;;;;;;21.48;70.46;100746.38;5020014;28;19963;-84
2023/06/13 04:47:01;;;;;;;;;;;;;;;21.41;70.85;100752.78;5016430;28;19925;-83
2023/06/13 04:49:28;;;;;;;;;;;;;;;21.45;70.59;100752.19;5015999;28;19971;-83
2023/06/13 04:51:58;;;;;;;;;;;;;;;21.24;70.40;100698.28;5019867;28;20325;-83
2023/06/13 04:54:26;;;;;;;;;;;;;;;21.64;69.78;100742.44;5013745;28;19928;-83
2023/06/13 04:56:54;;;;;;;;;;;;;;;21.58;70.89;100746.00;5010947;28;20212;-84
2023/06/13 04:59:30;;;;;;;;;;;;;;;21.27;71.00;100684.41;5010202;28;19978;-83
2023/06/13 05:02:04;;;;;;;;;;;;;;;21.69;70.46;100736.44;4972634;28;20257;-84
2023/06/13 05:04:39;;;;;;;;;;;;;;;21.65;70.54;100727.06;4996468;28;19924;-83
2023/06/13 05:07:09;;;;;;;;;;;;;;;21.77;70.61;100736.22;5017449;28;20297;-83
2023/06/13 05:09:48;;;;;;;;;;;;;;;21.68;71.56;100730.19;4973500;28;20277;-85
2023/06/13 05:12:24;;;;;;;;;;;;;;;21.72;71.70;100733.31;4988617;28;20468;-83
2023/06/13 05:14:57;;;;;;;;;;;;;;;21.59;72.62;100720.63;4996676;28;19928;-82
2023/06/13 05:17:29;;;;;;;;;;;;;;;21.51;73.75;100718.97;5022101;28;19928;-83
2023/06/13 05:19:56;;;;;;;;;;;;;;;21.05;72.95;100633.28;5013714;28;19932;-83
2023/06/13 05:22:25;;;;;;;;;;;;;;;21.69;73.04;100726.44;5009249;28;20361;-83
2023/06/13 05:24:59;;;;;;;;;;;;;;;21.63;73.05;100723.75;5000427;28;19935;-83
2023/06/13 05:27:27;;;;;;;;;;;;;;;21.72;72.62;100712.56;5015638;28;20342;-84
2023/06/13 05:29:57;;;;;;;;;;;;;;;21.40;73.02;100670.13;5030976;28;19951;-83
2023/06/13 05:32:25;;;;;;;;;;;;;;;21.66;73.04;100715.25;5031730;28;20417;-84
2023/06/13 05:34:56;;;;;;;;;;;;;;;21.65;73.31;100725.22;4976121;28;20266;-84
2023/06/13 05:37:23;;;;;;;;;;;;;;;21.62;73.55;100727.50;4997374;28;19925;-83
2023/06/13 05:39:50;;;;;;;;;;;;;;;21.63;73.23;100723.75;5009938;28;20257;-83
2023/06/13 05:42:22;;;;;;;;;;;;;;;21.65;73.25;100735.16;4990612;28;19924;-84
2023/06/13 05:44:51;;;;;;;;;;;;;;;21.19;74.61;100682.75;5010924;28;19924;-84
2023/06/13 05:47:22;;;;;;;;;;;;;;;21.46;74.46;100721.44;4999596;28;20351;-84
2023/06/13 05:49:52;;;;;;;;;;;;;;;21.10;74.91;100671.28;5016665;28;20293;-83
2023/06/13 05:52:23;;;;;;;;;;;;;;;21.53;74.13;100722.28;4991965;28;20309;-84
2023/06/13 05:54:49;;;;;;;;;;;;;;;21.63;73.91;100721.06;5022699;28;20270;-84
2023/06/13 05:57:16;;;;;;;;;;;;;;;21.69;73.72;100718.34;5030780;28;20159;-85
2023/06/13 05:59:48;;;;;;;;;;;;;;;21.63;73.99;100721.06;4980976;28;19998;-84
2023/06/13 06:02:21;;;;;;;;;;;;;;;21.53;74.52;100722.28;4987660;28;20394;-84
2023/06/13 06:04:48;;;;;;;;;;;;;;;21.30;74.54;100674.00;4978408;28;20254;-83
2023/06/13 06:07:18;;;;;;;;;;;;;;;21.64;73.83;100720.00;5016065;28;19950;-84
2023/06/13 06:09:45;;;;;;;;;;;;;;;21.65;74.04;100717.13;5017887;28;20443;-84
2023/06/13 06:12:13;;;;;;;;;;;;;;;21.34;73.97;100669.88;5011359;28;20088;-84
2023/06/13 06:14:40;;;;;;;;;;;;;;;21.77;72.81;100718.16;5019862;28;20199;-83
2023/06/13 06:17:07;;;;;;;;;;;;;;;21.82;73.03;100720.25;5041175;28;19931;-83
2023/06/13 06:19:34;;;;;;;;;;;;;;;21.77;73.32;100722.72;5014137;28;19928;-83
2023/06/13 06:22:03;;;;;;;;;;;;;;;21.50;72.96;100684.03;5040307;28;19959;-84
2023/06/13 06:24:33;;;;;;;;;;;;;;;21.25;73.15;100635.19;5035295;28;19952;-83
2023/06/13 06:27:03;;;;;;;;;;;;;;;21.81;73.02;100728.53;5016579;28;20027;-85
2023/06/13 06:29:31;;;;;;;;;;;;;;;22.07;72.07;100722.31;5019900;28;19929;-85
2023/06/13 06:31:57;;;;;;;;;;;;;;;22.16;71.57;100716.47;5021550;28;19967;-84
2023/06/13 06:34:24;;;;;;;;;;;;;;;22.19;71.20;100715.22;5037051;28;19954;-82
2023/06/13 06:36:52;;;;;;;;;;;;;;;22.31;70.84;100710.03;5013267;28;19974;-85
2023/06/13 06:39:22;;;;;;;;;;;;;;;22.39;70.32;100705.22;5021759;28;20107;-84
2023/06/13 06:41:50;;;;;;;;;;;;;;;22.42;70.31;100706.66;5033295;28;20476;-85
2023/06/13 06:44:17;;;;;;;;;;;;;;;22.50;70.24;100700.19;5020981;28;19955;-84
2023/06/13 06:46:56;;;;;;;;;;;;;;;22.61;69.30;100699.53;4997377;28;20564;-84
2023/06/13 06:49:32;;;;;;;;;;;;;;;22.65;68.64;100700.78;4993083;28;20376;-85
2023/06/13 06:51:59;;;;;;;;;;;;;;;22.81;68.17;100703.00;5009537;28;19931;-85
2023/06/13 06:54:27;;;;;;;;;;;;;;;22.72;67.14;100688.06;5004434;28;20410;-85
2023/06/13 06:56:58;;;;;;;;;;;;;;;22.66;67.26;100639.38;4978298;28;20032;-86
2023/06/13 06:59:31;;;;;;;;;;;;;;;23.14;66.29;100690.41;5015194;28;19932;-83
2023/06/13 07:01:58;;;;;;;;;;;;;;;23.28;65.22;100685.69;5022556;28;20232;-81
2023/06/13 07:04:35;;;;;;;;;;;;;;;22.95;65.44;100655.03;4979000;28;20000;-85
2023/06/13 07:07:05;;;;;;;;;;;;;;;23.23;65.29;100689.09;4980055;28;20411;-84
2023/06/13 07:09:32;;;;;;;;;;;;;;;23.40;64.88;100687.53;4994481;28;19930;-85
2023/06/13 07:11:59;;;;;;;;;;;;;;;23.37;64.79;100685.22;5027834;28;20031;-84
2023/06/13 07:14:28;;;;;;;;;;;;;;;23.32;64.59;100684.22;5019474;28;20014;-85
2023/06/13 07:17:01;;;;;;;;;;;;;;;23.34;64.69;100685.66;5035875;28;19934;-85
2023/06/13 07:19:28;;;;;;;;;;;;;;;23.36;64.63;100689.00;5035716;28;19924;-84
2023/06/13 07:21:55;;;;;;;;;;;;;;;23.32;64.60;100686.94;5031600;28;20231;-86
2023/06/13 07:24:22;;;;;;;;;;;;;;;23.31;64.82;100682.59;5021176;28;19924;-86
2023/06/13 07:26:49;;;;;;;;;;;;;;;23.27;64.83;100690.31;5037061;28;19932;-85
2023/06/13 07:29:16;;;;;;;;;;;;;;;23.41;64.35;100683.75;5039001;28;20638;-85
2023/06/13 07:31:43;;;;;;;;;;;;;;;23.51;63.67;100675.13;5028014;28;20024;-84
2023/06/13 07:34:10;;;;;;;;;;;;;;;23.37;64.04;100678.97;5021134;28;20237;-84
2023/06/13 07:36:57;;;;;;;;;;;;;;;23.27;64.39;100670.50;5018291;28;19925;-83
2023/06/13 07:39:25;;;;;;;;;;;;;;;23.39;64.07;100679.59;5032615;28;19929;-85
2023/06/13 07:41:51;;;;;;;;;;;;;;;23.45;63.91;100676.03;5026043;28;20401;-83
2023/06/13 07:44:18;;;;;;;;;;;;;;;23.50;64.04;100678.06;5034123;28;19929;-84
2023/06/13 07:46:47;;;;;;;;;;;;;;;23.55;63.73;100668.22;5025831;28;20747;-85
2023/06/13 07:49:14;;;;;;;;;;;;;;;23.58;63.02;100665.06;4985868;28;20128;-83
2023/06/13 07:51:41;;;;;;;;;;;;;;;23.68;63.10;100676.25;4995854;28;19931;-84
2023/06/13 07:54:10;;;;;;;;;;;;;;;23.61;62.69;100652.97;4982999;28;19928;-84
2023/06/13 07:56:44;;;;;;;;;;;;;;;23.84;62.68;100684.91;4993202;28;20619;-84
2023/06/13 07:59:21;;;;;;;;;;;;;;;23.91;62.08;100672.13;4989288;28;19935;-84
2023/06/13 08:01:57;;;;;;;;;;;;;;;23.86;62.19;100672.81;4996312;28;20103;-85
2023/06/13 08:04:30;;;;;;;;;;;;;;;23.98;61.80;100677.47;4988768;28;20275;-84
2023/06/13 08:07:16;;;;;;;;;;;;;;;24.06;61.69;100678.03;4984409;28;20373;-85
2023/06/13 08:09:49;;;;;;;;;;;;;;;24.08;61.58;100675.94;4981320;28;20354;-85
2023/06/13 08:12:19;;;;;;;;;;;;;;;24.13;61.75;100683.41;4999011;28;20100;-86
2023/06/13 08:14:50;;;;;;;;;;;;;;;24.21;61.26;100674.13;5034534;28;19932;-86
2023/06/13 08:17:17;;;;;;;;;;;;;;;24.16;61.07;100661.25;5029596;28;20077;-83
2023/06/13 08:19:48;;;;;;;;;;;;;;;24.15;61.27;100665.00;5022286;28;20231;-83
2023/06/13 08:22:19;;;;;;;;;;;;;;;23.91;61.33;100623.34;5022301;28;19939;-85
2023/06/13 08:24:54;;;;;;;;;;;;;;;24.14;62.20;100662.53;4992450;28;20321;-84
2023/06/13 08:27:29;;;;;;;;;;;;;;;24.28;61.66;100670.28;4966520;28;20384;-84
2023/06/13 08:30:04;;;;;;;;;;;;;;;24.34;60.80;100663.13;5009010;28;20094;-84
2023/06/13 08:32:32;;;;;;;;;;;;;;;24.50;61.04;100661.75;5030908;28;19932;-82
2023/06/13 08:35:03;;;;;;;;;;;;;;;24.50;60.62;100678.00;4987176;28;20250;-83
2023/06/13 08:37:41;;;;;;;;;;;;;;;24.17;60.31;100624.91;4980127;28;20249;-83
2023/06/13 08:40:19;;;;;;;;;;;;;;;24.34;60.34;100629.75;4993566;28;19928;-84
2023/06/13 08:42:54;;;;;;;;;;;;;;;24.68;59.78;100672.56;5011951;28;20604;-84
2023/06/13 08:45:22;;;;;;;;;;;;;;;24.88;59.46;100669.59;5031576;28;19928;-84
2023/06/13 08:47:54;;;;;;;;;;;;;;;24.46;58.78;100595.41;5020230;28;19924;-84
2023/06/13 08:50:27;;;;;;;;;;;;;;;25.03;59.02;100671.09;4986431;28;19924;-84
2023/06/13 08:53:03;;;;;;;;;;;;;;;25.02;58.84;100674.84;4994173;28;20381;-82
2023/06/13 08:55:36;;;;;;;;;;;;;;;25.11;58.74;100673.47;5025640;28;19928;-84
2023/06/13 08:58:08;;;;;;;;;;;;;;;25.09;58.79;100678.28;5030353;28;20197;-84
2023/06/13 09:00:40;;;;;;;;;;;;;;;25.13;58.54;100682.22;5034397;28;19931;-84
2023/06/13 09:03:12;;;;;;;;;;;;;;;25.19;58.77;100681.31;5032519;28;19925;-83
2023/06/13 09:05:39;;;;;;;;;;;;;;;25.31;58.26;100674.03;5033919;28;19989;-84
2023/06/13 09:08:06;;;;;;;;;;;;;;;25.46;57.56;100670.03;5018239;28;19924;-84
2023/06/13 09:10:53;;;;;;;;;;;;;;;25.54;57.35;100672.44;5032714;28;20447;-84
2023/06/13 09:13:21;;;;;;;;;;;;;;;25.43;57.66;100665.09;5010664;28;19994;-84
2023/06/13 09:15:51;;;;;;;;;;;;;;;24.98;58.16;100584.03;5032004;28;20239;-84
2023/06/13 09:18:19;;;;;;;;;;;;;;;25.67;57.07;100661.34;5019653;28;20109;-84
2023/06/13 09:20:46;;;;;;;;;;;;;;;25.68;56.69;100657.56;5013743;28;19930;-83
2023/06/13 09:23:15;;;;;;;;;;;;;;;25.47;56.61;100660.84;5022440;28;20480;-84
2023/06/13 09:25:44;;;;;;;;;;;;;;;25.57;56.90;100661.09;5024920;28;20397;-83
2023/06/13 09:28:29;;;;;;;;;;;;;;;25.62;56.78;100658.50;5003884;28;19929;-84
2023/06/13 09:31:00;;;;;;;;;;;;;;;25.57;57.05;100650.22;5008603;28;20320;-85
2023/06/13 09:33:30;;;;;;;;;;;;;;;25.73;56.26;100659.56;5008850;28;20385;-87
2023/06/13 09:36:11;;;;;;;;;;;;;;;25.51;56.28;100607.66;5019693;28;20787;-86
2023/06/13 09:38:44;;;;;;;;;;;;;;;25.87;55.72;100657.47;5035309;28;19930;-84
2023/06/13 09:41:11;;;;;;;;;;;;;;;25.84;55.88;100655.22;5036927;28;19951;-85
2023/06/13 09:43:38;;;;;;;;;;;;;;;25.93;56.05;100660.09;5030435;28;19925;-85
2023/06/13 09:46:10;;;;;;;;;;;;;;;26.00;55.51;100652.63;5026653;28;19936;-83
2023/06/13 09:48:46;;;;;;;;;;;;;;;25.83;54.44;100596.44;5050131;28;20005;-83
2023/06/13 09:51:15;;;;;;;;;;;;;;;26.09;54.47;100641.38;5033500;28;19939;-83
2023/06/13 09:53:43;;;;;;;;;;;;;;;26.25;54.52;100639.84;5028780;28;19932;-84
2023/06/13 09:56:10;;;;;;;;;;;;;;;26.32;54.30;100641.34;5039852;28;19929;-83
2023/06/13 09:58:37;;;;;;;;;;;;;;;26.37;52.74;100632.47;5036717;28;19924;-83
2023/06/13 10:01:06;;;;;;;;;;;;;;;26.08;53.56;100579.91;5037945;28;20571;-83
2023/06/13 10:03:32;;;;;;;;;;;;;;;26.50;53.67;100615.84;5022547;28;20317;-85
2023/06/13 10:06:00;;;;;;;;;;;;;;;26.64;53.03;100621.88;5015760;28;19940;-83
2023/06/13 10:08:31;;;;;;;;;;;;;;;26.59;53.16;100619.06;5041873;28;20029;-84
2023/06/13 10:11:00;;;;;;;;;;;;;;;26.66;52.71;100618.94;5021876;28;19948;-84
2023/06/13 10:13:29;;;;;;;;;;;;;;;26.79;52.81;100607.72;5042975;28;20374;-83
2023/06/13 10:16:00;;;;;;;;;;;;;;;27.04;52.29;100615.53;5061243;28;20570;-82
2023/06/13 10:18:39;;;;;;;;;;;;;;;27.20;50.70;100603.03;5017102;28;19925;-85
2023/06/13 10:21:13;;;;;;;;;;;;;;;27.34;51.02;100603.56;5037635;28;19929;-84
2023/06/13 10:23:46;;;;;;;;;;;;;;;27.66;50.51;100595.59;5030840;28;20092;-83
2023/06/13 10:26:16;;;;;;;;;;;;;;;27.62;49.56;100598.00;5021415;28;19925;-84
2023/06/13 10:29:04;;;;;;;;;;;;;;;27.81;49.87;100587.63;5025031;28;19932;-83
2023/06/13 10:31:43;;;;;;;;;;;;;;;27.51;48.80;100517.13;5023772;28;19929;-83
2023/06/13 10:34:23;;;;;;;;;;;;;;;27.91;48.18;100590.56;5036530;28;20378;-83
2023/06/13 10:37:00;;;;;;;;;;;;;;;27.73;48.52;100574.44;5035558;28;20227;-85
2023/06/13 10:39:34;;;;;;;;;;;;;;;27.74;48.91;100573.34;5040469;28;19924;-84
2023/06/13 10:42:11;;;;;;;;;;;;;;;27.76;48.69;100578.56;5032256;28;20393;-84
2023/06/13 10:45:00;;;;;;;;;;;;;;;27.69;48.48;100573.28;5042236;28;20313;-82
2023/06/13 10:47:28;;;;;;;;;;;;;;;27.66;47.92;100571.06;5034176;28;19925;-84
2023/06/13 10:49:56;;;;;;;;;;;;;;;27.46;47.91;100569.69;5028375;28;19986;-84
2023/06/13 10:52:23;;;;;;;;;;;;;;;27.58;48.06;100560.59;4996262;28;20118;-83
2023/06/13 10:55:01;;;;;;;;;;;;;;;27.58;47.79;100566.03;5005752;28;20166;-84
2023/06/13 10:58:10;;;;;;;;;;;;;;;27.59;47.72;100562.22;5004057;28;19932;-85
2023/06/13 11:00:44;;;;;;;;;;;;;;;27.79;47.56;100561.69;4973970;28;20255;-83
2023/06/13 11:03:20;;;;;;;;;;;;;;;27.72;46.74;100564.63;5005891;28;19929;-84
2023/06/13 11:06:05;;;;;;;;;;;;;;;27.37;46.87;100513.09;5011868;28;20004;-84
2023/06/13 11:08:41;;;;;;;;;;;;;;;27.73;47.60;100552.63;5005274;28;20003;-85
2023/06/13 11:11:20;;;;;;;;;;;;;;;27.77;47.75;100547.47;4999152;28;20271;-84
2023/06/13 11:13:54;;;;;;;;;;;;;;;27.81;47.16;100543.16;5008784;28;19928;-82
2023/06/13 11:16:48;;;;;;;;;;;;;;;27.81;47.84;100545.91;5016372;28;20226;-84
2023/06/13 11:19:21;;;;;;;;;;;;;;;27.85;47.09;100542.44;4999022;28;20153;-84
2023/06/13 11:22:06;;;;;;;;;;;;;;;27.75;46.64;100550.47;5010517;28;19925;-85
2023/06/13 11:24:35;;;;;;;;;;;;;;;27.69;47.70;100540.56;5007692;28;20594;-83
2023/06/13 11:27:06;;;;;;;;;;;;;;;27.77;47.04;100542.88;5001714;28;20651;-84
2023/06/13 11:29:36;;;;;;;;;;;;;;;27.71;47.85;100538.41;5013620;28;20298;-83
2023/06/13 11:32:08;;;;;;;;;;;;;;;27.77;47.58;100537.41;5025799;28;19924;-84
2023/06/13 11:34:42;;;;;;;;;;;;;;;27.71;47.79;100532.94;5021510;28;20099;-83
2023/06/13 11:37:25;;;;;;;;;;;;;;;27.34;46.63;100483.63;4994665;28;20827;-84
2023/06/13 11:39:56;;;;;;;;;;;;;;;27.39;47.59;100525.41;5015630;28;20529;-85
2023/06/13 11:42:43;;;;;;;;;;;;;;;27.08;48.95;100519.44;4988658;28;20191;-83
2023/06/13 11:45:16;;;;;;;;;;;;;;;26.93;49.31;100505.59;5007339;28;20324;-85
2023/06/13 11:47:45;;;;;;;;;;;;;;;27.09;48.97;100503.94;5014690;28;20397;-83
2023/06/13 11:50:16;;;;;;;;;;;;;;;27.09;48.99;100506.66;4988312;28;19924;-84
2023/06/13 11:53:11;;;;;;;;;;;;;;;27.03;48.94;100511.19;4994218;28;20698;-84
2023/06/13 11:55:43;;;;;;;;;;;;;;;26.98;49.28;100502.13;4996600;28;20277;-84
2023/06/13 11:58:31;;;;;;;;;;;;;;;26.85;49.82;100497.84;4982319;28;19925;-84
2023/06/13 12:01:17;;;;;;;;;;;;;;;26.74;49.30;100464.13;4989957;28;20152;-85
2023/06/13 12:03:58;;;;;;;;;;;;;;;26.75;49.12;100470.41;5013057;28;20366;-84
2023/06/13 12:06:26;;;;;;;;;;;;;;;27.21;49.26;100509.31;5016994;28;20368;-83
2023/06/13 12:08:54;;;;;;;;;;;;;;;26.89;49.40;100482.63;5013886;28;20324;-85
2023/06/13 12:11:21;;;;;;;;;;;;;;;27.13;49.27;100512.44;5026286;28;20185;-85
2023/06/13 12:13:59;;;;;;;;;;;;;;;27.18;49.14;100517.97;5042215;28;20165;-85
2023/06/13 12:16:35;;;;;;;;;;;;;;;26.91;49.70;100475.03;5020138;28;20413;-83
2023/06/13 12:19:07;;;;;;;;;;;;;;;26.96;48.89;100469.66;5033116;28;19924;-84
2023/06/13 12:21:36;;;;;;;;;;;;;;;27.38;49.06;100515.59;5018969;28;20143;-84
2023/06/13 12:24:11;;;;;;;;;;;;;;;27.18;49.24;100468.91;5018470;28;20219;-85
2023/06/13 12:26:44;;;;;;;;;;;;;;;27.44;49.16;100503.66;4989622;28;19929;-84
2023/06/13 12:29:11;;;;;;;;;;;;;;;27.42;49.40;100503.09;5024869;28;19924;-84
2023/06/13 12:31:41;;;;;;;;;;;;;;;27.61;48.94;100494.63;5013618;28;19928;-84
2023/06/13 12:34:08;;;;;;;;;;;;;;;27.61;48.74;100497.38;5034134;28;20255;-84
2023/06/13 12:36:44;;;;;;;;;;;;;;;27.79;48.45;100490.78;5024861;28;19925;-85
2023/06/13 12:39:15;;;;;;;;;;;;;;;27.87;47.72;100483.00;5009338;28;20020;-86
2023/06/13 12:41:52;;;;;;;;;;;;;;;27.92;48.18;100487.72;4982411;28;19975;-84
2023/06/13 12:44:33;;;;;;;;;;;;;;;27.97;48.25;100489.69;5021714;28;20382;-84
2023/06/13 12:47:04;;;;;;;;;;;;;;;27.92;47.91;100488.53;5024646;28;20382;-86
2023/06/13 12:49:38;;;;;;;;;;;;;;;27.96;47.60;100485.28;5016897;28;20343;-84
2023/06/13 12:52:06;;;;;;;;;;;;;;;27.91;48.23;100488.78;5019444;28;20008;-84
2023/06/13 12:54:36;;;;;;;;;;;;;;;27.82;47.53;100482.94;5030919;28;20450;-84
2023/06/13 12:57:11;;;;;;;;;;;;;;;27.87;47.70;100491.19;5002212;28;20306;-85
2023/06/13 12:59:38;;;;;;;;;;;;;;;27.77;48.20;100492.91;4996400;28;19998;-83